Time;durP1;ratioP1;P1;durP2;ratioP2;P2;SDS_P1;SDS_P2;PMS_P1;PMS_P2;Temp;Humidity;BMP_temperature;BMP_pressure;BME280_temperature;BME280_humidity;BME280_pressure;Samples;Min_cycle;Max_cycle;Signal;HPM_P1;HPM_P2
2022/03/02 00:02:04;;;;;;;25.70;15.55;;;;;;;6.45;43.22;102414.78;5070793;28;20499;-60
2022/03/02 00:04:31;;;;;;;24.20;17.17;;;;;;;6.43;43.32;102402.66;5071748;28;20072;-60
2022/03/02 00:06:58;;;;;;;26.17;16.88;;;;;;;6.42;43.34;102400.91;5071044;28;20052;-60
2022/03/02 00:09:24;;;;;;;21.10;15.27;;;;;;;6.36;43.20;102405.31;5070752;28;20040;-60
2022/03/02 00:11:51;;;;;;;25.23;15.98;;;;;;;6.36;43.24;102404.44;5071580;28;20044;-60
2022/03/02 00:14:18;;;;;;;24.42;16.00;;;;;;;6.32;43.55;102402.75;5071583;28;20044;-60
2022/03/02 00:16:45;;;;;;;20.20;14.27;;;;;;;6.30;43.16;102399.34;5071164;28;20051;-60
2022/03/02 00:19:11;;;;;;;21.98;14.50;;;;;;;6.26;43.42;102397.63;5082513;28;20040;-60
2022/03/02 00:21:38;;;;;;;23.48;15.25;;;;;;;6.17;43.49;102396.84;5078505;28;20103;-60
2022/03/02 00:24:04;;;;;;;26.27;14.80;;;;;;;6.09;43.54;102397.81;5077958;28;20097;-60
2022/03/02 00:26:32;;;;;;;23.40;15.05;;;;;;;6.02;43.72;102392.66;5071589;28;20077;-60
2022/03/02 00:28:59;;;;;;;23.48;14.93;;;;;;;6.03;43.48;102393.53;5071436;28;20508;-60
2022/03/02 00:31:27;;;;;;;24.50;15.32;;;;;;;6.05;43.51;102390.03;5071513;28;20507;-60
2022/03/02 00:33:53;;;;;;;19.65;14.05;;;;;;;6.08;43.42;102390.88;5071572;28;20101;-60
2022/03/02 00:36:20;;;;;;;20.52;14.27;;;;;;;6.08;43.47;102386.50;5071627;28;20075;-60
2022/03/02 00:38:47;;;;;;;22.48;14.55;;;;;;;6.09;43.49;102387.41;5071114;28;20049;-60
2022/03/02 00:41:13;;;;;;;23.77;15.18;;;;;;;6.05;43.74;102391.78;5070763;28;20094;-60
2022/03/02 00:43:40;;;;;;;18.92;13.85;;;;;;;5.99;43.66;102387.50;5053479;28;20484;-60
2022/03/02 00:46:06;;;;;;;22.98;14.43;;;;;;;5.93;43.79;102392.75;5071562;28;20095;-60
2022/03/02 00:48:33;;;;;;;23.08;14.73;;;;;;;5.89;44.00;102394.53;5071535;28;20114;-60
2022/03/02 00:51:00;;;;;;;22.48;15.23;;;;;;;5.89;43.93;102389.31;5070915;28;20072;-60
2022/03/02 00:53:27;;;;;;;24.10;15.07;;;;;;;5.91;43.89;102386.69;5069645;28;20037;-60
2022/03/02 00:55:53;;;;;;;20.20;14.57;;;;;;;5.88;43.96;102384.13;5070598;28;20045;-60
2022/03/02 00:58:20;;;;;;;20.17;14.27;;;;;;;5.86;43.95;102380.66;5070428;28;20044;-60
2022/03/02 01:00:47;;;;;;;25.02;14.88;;;;;;;5.79;44.17;102374.66;5071159;28;20496;-60
2022/03/02 01:03:14;;;;;;;23.98;14.63;;;;;;;5.75;44.44;102379.91;5071428;28;20072;-60
2022/03/02 01:05:40;;;;;;;21.73;14.23;;;;;;;5.80;44.14;102381.59;5071266;28;20053;-60
2022/03/02 01:08:07;;;;;;;22.70;16.02;;;;;;;5.78;44.18;102374.69;5071504;28;20488;-60
2022/03/02 01:10:34;;;;;;;19.63;14.45;;;;;;;5.73;44.32;102366.91;5071268;28;20056;-60
2022/03/02 01:13:00;;;;;;;24.33;14.80;;;;;;;5.76;44.21;102360.78;5070317;28;20098;-60
2022/03/02 01:15:27;;;;;;;23.05;14.77;;;;;;;5.72;44.34;102371.22;5071208;28;20122;-60
2022/03/02 01:17:53;;;;;;;19.55;14.43;;;;;;;5.67;44.80;102365.19;5071083;28;20045;-60
2022/03/02 01:20:20;;;;;;;19.58;13.85;;;;;;;5.66;44.45;102360.00;5071228;28;20076;-60
2022/03/02 01:22:47;;;;;;;20.65;14.25;;;;;;;5.63;44.60;102355.69;5071053;28;20040;-60
2022/03/02 01:25:14;;;;;;;22.77;14.45;;;;;;;5.67;44.83;102351.31;5071284;28;20044;-60
2022/03/02 01:27:40;;;;;;;20.17;14.40;;;;;;;5.65;44.79;102351.34;5070483;28;20053;-60
2022/03/02 01:30:08;;;;;;;24.60;15.63;;;;;;;5.62;45.16;102345.31;5069794;28;20052;-60
2022/03/02 01:32:35;;;;;;;19.73;14.55;;;;;;;5.56;45.00;102341.00;5071020;28;20094;-60
2022/03/02 01:35:02;;;;;;;19.92;14.90;;;;;;;5.61;45.18;102335.75;5071536;28;20446;-60
2022/03/02 01:37:30;;;;;;;25.63;14.93;;;;;;;5.60;45.31;102336.63;5074709;28;20045;-60
2022/03/02 01:39:56;;;;;;;19.80;14.55;;;;;;;5.59;45.50;102335.78;5074379;28;20485;-60
2022/03/02 01:42:23;;;;;;;25.48;15.27;;;;;;;5.58;45.60;102330.59;5074776;28;20374;-60
2022/03/02 01:44:50;;;;;;;22.13;14.23;;;;;;;5.55;45.74;102334.94;5073499;28;20496;-60
2022/03/02 01:47:17;;;;;;;23.75;14.73;;;;;;;5.53;45.74;102334.09;5074446;28;20044;-60
2022/03/02 01:49:44;;;;;;;21.90;15.40;;;;;;;5.50;45.97;102328.06;5074441;28;20072;-60
2022/03/02 01:52:11;;;;;;;25.38;14.18;;;;;;;5.47;46.12;102328.97;5074299;28;20041;-60
2022/03/02 01:54:38;;;;;;;19.85;14.43;;;;;;;5.45;46.11;102324.66;5074080;28;20480;-60
2022/03/02 01:57:04;;;;;;;19.83;14.30;;;;;;;5.43;46.14;102322.03;5073627;28;20063;-60
2022/03/02 01:59:31;;;;;;;23.25;14.88;;;;;;;5.45;46.27;102324.66;5074345;28;20671;-60
2022/03/02 02:01:58;;;;;;;23.23;14.20;;;;;;;5.45;46.21;102320.28;5073376;28;20048;-60
2022/03/02 02:04:25;;;;;;;20.50;14.10;;;;;;;5.40;46.45;102314.28;5074042;28;20044;-60
2022/03/02 02:06:52;;;;;;;22.80;15.13;;;;;;;5.38;46.36;102314.28;5074059;28;20078;-60
2022/03/02 02:09:18;;;;;;;22.17;15.40;;;;;;;5.36;46.38;102309.97;5073982;28;20047;-60
2022/03/02 02:11:45;;;;;;;20.75;14.57;;;;;;;5.34;46.37;102315.19;5073939;28;20044;-60
2022/03/02 02:14:12;;;;;;;20.98;14.00;;;;;;;5.33;46.39;102313.47;5074067;28;20136;-60
2022/03/02 02:16:39;;;;;;;21.48;14.20;;;;;;;5.34;46.23;102309.13;5072406;28;20041;-60
2022/03/02 02:19:05;;;;;;;23.67;14.65;;;;;;;5.30;46.30;102307.44;5074029;28;20044;-60
2022/03/02 02:21:32;;;;;;;22.33;14.65;;;;;;;5.27;46.20;102308.31;5073593;28;20056;-60
2022/03/02 02:23:59;;;;;;;23.85;14.68;;;;;;;5.27;46.29;102300.50;5073811;28;20082;-60
2022/03/02 02:26:25;;;;;;;23.58;14.35;;;;;;;5.26;46.05;102293.56;5073775;28;20037;-60
2022/03/02 02:28:54;;;;;;;22.10;14.88;;;;;;;5.21;46.37;102292.75;5073387;28;20136;-60
2022/03/02 02:31:21;;;;;;;21.98;15.02;;;;;;;5.21;46.22;102298.81;5073673;28;20040;-60
2022/03/02 02:33:48;;;;;;;21.42;14.77;;;;;;;5.15;46.25;102298.88;5072807;28;20041;-60
2022/03/02 02:36:15;;;;;;;22.17;14.73;;;;;;;5.14;46.26;102298.88;5073539;28;20052;-60
2022/03/02 02:38:42;;;;;;;22.38;14.98;;;;;;;5.14;46.30;102291.97;5073307;28;20071;-60
2022/03/02 02:41:09;;;;;;;21.27;13.68;;;;;;;5.12;46.42;102285.03;5073625;28;20045;-60
2022/03/02 02:43:37;;;;;;;19.83;13.68;;;;;;;5.15;46.44;102282.41;5073285;28;20098;-60
2022/03/02 02:46:04;;;;;;;22.42;14.70;;;;;;;5.14;46.54;102285.88;5073074;28;20063;-60
2022/03/02 02:48:31;;;;;;;20.83;14.25;;;;;;;5.08;46.65;102281.59;5073475;28;20049;-60
2022/03/02 02:50:58;;;;;;;23.70;14.60;;;;;;;5.05;46.94;102294.63;5072114;28;20040;-60
2022/03/02 02:53:25;;;;;;;24.77;14.23;;;;;;;5.01;47.15;102282.53;5072942;28;20050;-60
2022/03/02 02:55:53;;;;;;;21.08;14.57;;;;;;;4.97;47.03;102279.06;5072949;28;20051;-60
2022/03/02 02:58:20;;;;;;;20.35;14.40;;;;;;;5.02;46.93;102279.03;5073076;28;20071;-60
2022/03/02 03:00:52;;;;;;;21.98;14.68;;;;;;;5.00;47.04;102278.19;5072797;28;20114;-60
2022/03/02 03:03:19;;;;;;;21.73;13.90;;;;;;;4.98;47.08;102279.97;5073048;28;20040;-60
2022/03/02 03:05:46;;;;;;;20.77;14.32;;;;;;;4.98;47.18;102280.81;5072658;28;20048;-60
2022/03/02 03:08:14;;;;;;;23.25;15.10;;;;;;;4.95;47.25;102274.75;5072207;28;20117;-60
2022/03/02 03:10:42;;;;;;;22.13;14.18;;;;;;;4.94;47.38;102279.13;5072750;28;20036;-60
2022/03/02 03:13:09;;;;;;;20.50;14.77;;;;;;;4.94;47.34;102283.44;5072931;28;20102;-60
2022/03/02 03:15:36;;;;;;;22.25;14.63;;;;;;;4.95;47.26;102274.75;5072544;28;20075;-60
2022/03/02 03:18:04;;;;;;;20.80;14.38;;;;;;;4.97;47.42;102273.03;5072891;28;20051;-60
2022/03/02 03:20:32;;;;;;;21.02;14.73;;;;;;;4.98;47.18;102273.00;5072672;28;20508;-60
2022/03/02 03:22:59;;;;;;;21.35;14.23;;;;;;;4.93;47.17;102272.19;5072192;28;20059;-60
2022/03/02 03:25:31;;;;;;;21.52;14.38;;;;;;;4.88;47.36;102258.34;5071699;28;20508;-60
2022/03/02 03:28:09;;;;;;;21.17;14.80;;;;;;;4.88;47.49;102260.94;5067879;28;20056;-60
2022/03/02 03:30:40;;;;;;;23.98;15.48;;;;;;;4.83;47.38;102263.59;5072002;28;20047;-60
2022/03/02 03:33:08;;;;;;;23.25;15.35;;;;;;;4.82;47.79;102276.59;5072286;28;20084;-60
2022/03/02 03:35:35;;;;;;;22.88;15.30;;;;;;;4.86;47.63;102273.97;5072184;28;20083;-60
2022/03/02 03:38:01;;;;;;;21.52;14.70;;;;;;;4.84;47.76;102280.06;5072267;28;20159;-60
2022/03/02 03:40:28;;;;;;;21.08;14.35;;;;;;;4.82;47.66;102274.84;5071593;28;20051;-60
2022/03/02 03:42:55;;;;;;;24.75;15.88;;;;;;;4.79;48.29;102281.84;5072369;28;20044;-60
2022/03/02 03:45:22;;;;;;;23.27;14.98;;;;;;;4.84;47.91;102280.06;5072156;28;20075;-60
2022/03/02 03:47:49;;;;;;;24.17;16.13;;;;;;;4.83;48.02;102283.53;5072458;28;20036;-60
2022/03/02 03:50:16;;;;;;;28.02;15.55;;;;;;;4.77;48.17;102278.38;5072259;28;20412;-60
2022/03/02 03:52:43;;;;;;;22.88;15.00;;;;;;;4.76;48.34;102276.66;5072045;28;20040;-60
2022/03/02 03:55:11;;;;;;;25.55;15.05;;;;;;;4.73;48.34;102269.72;5071932;28;20061;-60
2022/03/02 03:57:39;;;;;;;26.50;15.48;;;;;;;4.77;48.27;102271.44;5070523;28;20044;-60
2022/03/02 04:00:15;;;;;;;22.35;14.93;;;;;;;4.76;48.25;102274.06;5072206;28;20079;-60
2022/03/02 04:02:43;;;;;;;22.73;14.75;;;;;;;4.75;48.37;102268.00;5067655;28;20049;-61
2022/03/02 04:05:09;;;;;;;23.40;15.18;;;;;;;4.75;48.23;102273.19;5057746;28;20048;-60
2022/03/02 04:07:42;;;;;;;23.67;15.77;;;;;;;4.76;48.26;102274.06;5068072;28;20054;-60
2022/03/02 04:10:10;;;;;;;24.75;15.60;;;;;;;4.67;48.58;102275.84;5060707;28;20055;-60
2022/03/02 04:12:37;;;;;;;22.00;15.18;;;;;;;4.62;48.54;102267.22;5067720;28;20506;-60
2022/03/02 04:15:04;;;;;;;23.25;15.25;;;;;;;4.65;48.43;102271.53;5068253;28;20524;-60
2022/03/02 04:17:31;;;;;;;24.50;16.05;;;;;;;4.67;48.48;102270.66;5068423;28;20495;-60
2022/03/02 04:19:57;;;;;;;23.38;15.07;;;;;;;4.63;48.67;102262.88;5068294;28;20072;-60
2022/03/02 04:22:24;;;;;;;24.50;15.95;;;;;;;4.62;48.68;102271.53;5068636;28;20048;-60
2022/03/02 04:24:51;;;;;;;25.50;15.57;;;;;;;4.62;48.75;102259.44;5068027;28;20045;-60
2022/03/02 04:27:18;;;;;;;23.40;16.17;;;;;;;4.65;48.62;102255.94;5068376;28;20048;-60
2022/03/02 04:29:45;;;;;;;23.75;16.08;;;;;;;4.56;48.88;102247.31;5067224;28;20496;-60
2022/03/02 04:32:12;;;;;;;25.98;16.35;;;;;;;4.59;48.82;102236.03;5068413;28;20049;-60
2022/03/02 04:34:38;;;;;;;22.92;15.63;;;;;;;4.56;48.86;102226.53;5068202;28;20040;-61
2022/03/02 04:37:05;;;;;;;25.48;15.45;;;;;;;4.56;49.04;102221.31;5068161;28;20102;-60
2022/03/02 04:39:32;;;;;;;26.63;15.93;;;;;;;4.55;49.20;102214.38;5068168;28;20116;-60
2022/03/02 04:41:59;;;;;;;25.08;15.68;;;;;;;4.57;48.90;102223.06;5068085;28;20048;-60
2022/03/02 04:44:25;;;;;;;26.58;15.30;;;;;;;4.54;49.06;102230.84;5068592;28;20048;-60
2022/03/02 04:46:52;;;;;;;24.63;16.30;;;;;;;4.50;49.17;102228.31;5067829;28;20132;-60
2022/03/02 04:49:20;;;;;;;26.55;15.30;;;;;;;4.47;49.24;102228.31;5068102;28;20040;-61
2022/03/02 04:51:48;;;;;;;25.10;16.10;;;;;;;4.50;49.08;102229.16;5068156;28;20102;-60
2022/03/02 04:57:04;;;;;;;25.88;15.82;;;;;;;4.48;48.84;102236.13;5068562;28;20413;-60
2022/03/02 04:59:31;;;;;;;25.17;16.88;;;;;;;4.47;48.91;102236.13;5068175;28;20040;-60
2022/03/02 05:01:58;;;;;;;22.45;15.27;;;;;;;4.30;49.01;102238.84;5068186;28;20049;-60
2022/03/02 05:04:25;;;;;;;27.27;15.85;;;;;;;4.24;49.10;102247.50;5067081;28;20041;-60
2022/03/02 05:06:51;;;;;;;22.05;16.13;;;;;;;4.23;49.18;102235.41;5068106;28;20044;-60
2022/03/02 05:09:18;;;;;;;23.45;16.05;;;;;;;4.12;49.23;102237.22;5069372;28;20052;-60
2022/03/02 05:11:45;;;;;;;27.17;15.88;;;;;;;4.16;49.26;102236.31;5071780;28;20037;-60
2022/03/02 05:14:11;;;;;;;23.27;15.50;;;;;;;4.20;49.07;102240.63;5072094;28;20412;-60
2022/03/02 05:16:38;;;;;;;26.52;16.33;;;;;;;4.11;49.20;102244.13;5071790;28;20047;-60
2022/03/02 05:19:05;;;;;;;25.23;15.60;;;;;;;4.02;49.36;102242.44;5070886;28;20048;-60
2022/03/02 05:21:31;;;;;;;26.48;15.02;;;;;;;4.00;49.46;102243.31;5071619;28;20052;-60
2022/03/02 05:23:58;;;;;;;24.52;15.57;;;;;;;3.94;49.38;102241.63;5071262;28;20036;-60
2022/03/02 05:26:25;;;;;;;25.15;15.38;;;;;;;3.94;49.48;102244.22;5071645;28;20044;-60
2022/03/02 05:28:51;;;;;;;26.13;15.57;;;;;;;3.91;49.44;102239.91;5071605;28;20044;-60
2022/03/02 05:31:20;;;;;;;27.67;16.15;;;;;;;3.88;49.31;102241.66;5071477;28;20102;-60
2022/03/02 05:33:47;;;;;;;24.55;16.05;;;;;;;3.88;49.51;102246.84;5071447;28;20079;-60
2022/03/02 05:36:13;;;;;;;22.75;16.17;;;;;;;3.88;49.59;102239.06;5070229;28;20063;-60
2022/03/02 05:38:40;;;;;;;24.67;15.65;;;;;;;3.88;49.75;102239.06;5071100;28;20049;-60
2022/03/02 05:41:07;;;;;;;22.95;15.65;;;;;;;3.85;49.60;102232.13;5071519;28;20055;-60
2022/03/02 05:43:33;;;;;;;26.10;16.15;;;;;;;3.91;49.63;102228.63;5071300;28;20048;-60
2022/03/02 05:46:00;;;;;;;26.20;16.75;;;;;;;3.93;49.60;102226.91;5071325;28;20412;-60
2022/03/02 05:48:27;;;;;;;25.75;17.15;;;;;;;3.90;49.54;102220.00;5071100;28;20382;-60
2022/03/02 05:50:54;;;;;;;28.23;16.30;;;;;;;3.91;49.60;102226.03;5070411;28;20040;-60
2022/03/02 05:53:20;;;;;;;24.42;17.10;;;;;;;3.93;49.59;102222.56;5071239;28;20041;-60
2022/03/02 05:55:47;;;;;;;26.17;15.98;;;;;;;3.89;49.55;102231.25;5070600;28;20076;-60
2022/03/02 05:58:13;;;;;;;28.60;15.93;;;;;;;3.94;49.48;102231.25;5071052;28;20082;-60
2022/03/02 06:00:42;;;;;;;25.70;17.00;;;;;;;3.98;49.54;102230.34;5070950;28;20048;-60
2022/03/02 06:03:08;;;;;;;24.00;17.23;;;;;;;3.95;49.62;102234.69;5071177;28;20049;-60
2022/03/02 06:05:39;;;;;;;26.27;17.13;;;;;;;3.85;49.72;102231.28;5070637;28;20060;-60
2022/03/02 06:08:12;;;;;;;31.73;18.17;;;;;;;3.85;49.63;102237.34;5070458;28;20045;-60
2022/03/02 06:10:39;;;;;;;28.77;16.45;;;;;;;3.81;49.57;102237.34;5070492;28;20052;-60
2022/03/02 06:13:07;;;;;;;29.90;16.73;;;;;;;3.75;49.71;102239.09;5070850;28;20076;-60
2022/03/02 06:15:34;;;;;;;28.23;17.77;;;;;;;3.73;49.78;102238.25;5070511;28;20060;-60
2022/03/02 06:18:02;;;;;;;28.33;17.10;;;;;;;3.78;49.56;102230.44;5070061;28;20048;-60
2022/03/02 06:20:29;;;;;;;25.33;16.27;;;;;;;3.76;49.63;102234.78;5070174;28;20044;-60
2022/03/02 06:22:56;;;;;;;24.38;16.00;;;;;;;3.78;49.56;102237.38;5069054;28;20045;-60
2022/03/02 06:25:23;;;;;;;23.13;16.83;;;;;;;3.78;49.71;102234.78;5070585;28;20053;-60
2022/03/02 06:27:49;;;;;;;25.02;17.25;;;;;;;3.76;49.51;102235.63;5070075;28;20048;-60
2022/03/02 06:30:17;;;;;;;25.85;18.00;;;;;;;3.78;49.55;102227.84;5056656;28;20045;-60
2022/03/02 06:32:43;;;;;;;23.48;16.88;;;;;;;3.81;49.60;102232.16;5070412;28;20048;-60
2022/03/02 06:35:11;;;;;;;24.60;17.38;;;;;;;3.81;49.53;102230.44;5070011;28;20097;-60
2022/03/02 06:37:38;;;;;;;30.35;20.25;;;;;;;3.80;49.35;102230.44;5070274;28;20040;-60
2022/03/02 06:40:08;;;;;;;31.88;19.17;;;;;;;3.80;49.49;102227.84;5069330;28;20136;-60
2022/03/02 06:42:46;;;;;;;33.10;19.08;;;;;;;3.84;49.40;102229.56;5070115;28;20076;-60
2022/03/02 06:45:27;;;;;;;30.92;19.25;;;;;;;3.87;49.33;102224.34;5070256;28;20057;-60
2022/03/02 06:48:06;;;;;;;31.27;19.55;;;;;;;3.91;49.47;102231.25;5070028;28;20186;-60
2022/03/02 06:50:37;;;;;;;30.17;20.60;;;;;;;3.93;49.41;102226.91;5070096;28;20515;-60
2022/03/02 06:53:11;;;;;;;34.95;20.02;;;;;;;3.97;49.37;102228.63;5069978;28;20052;-60
2022/03/02 06:55:44;;;;;;;31.20;20.25;;;;;;;4.02;49.31;102220.81;5068505;28;20056;-60
2022/03/02 06:58:14;;;;;;;36.20;21.98;;;;;;;4.13;49.01;102225.97;5070014;28;20389;-61
2022/03/02 07:00:51;;;;;;;36.45;21.85;;;;;;;4.18;49.00;102216.41;5069301;28;20719;-60
2022/03/02 07:03:20;;;;;;;37.70;22.30;;;;;;;4.29;48.62;102225.00;5069927;28;20045;-60
2022/03/02 07:05:51;;;;;;;41.00;22.23;;;;;;;4.42;48.63;102223.16;5069229;28;20049;-60
2022/03/02 07:08:18;;;;;;;33.00;21.27;;;;;;;4.57;48.48;102227.38;5069699;28;20049;-60
2022/03/02 07:10:45;;;;;;;35.80;22.63;;;;;;;4.69;48.36;102227.28;5068158;28;20512;-60
2022/03/02 07:13:12;;;;;;;41.08;24.42;;;;;;;4.86;48.37;102221.97;5069038;28;20041;-60
2022/03/02 07:15:38;;;;;;;42.97;27.60;;;;;;;5.02;48.01;102222.66;5068346;28;20037;-60
2022/03/02 07:18:07;;;;;;;37.80;23.45;;;;;;;5.17;47.95;102216.44;5068310;28;20451;-60
2022/03/02 07:20:45;;;;;;;38.03;23.13;;;;;;;5.29;47.72;102219.81;5068896;28;20121;-60
2022/03/02 07:23:15;;;;;;;35.47;22.15;;;;;;;5.50;47.27;102219.56;5067664;28;20382;-60
2022/03/02 07:25:44;;;;;;;36.10;24.13;;;;;;;5.67;47.13;102218.50;5068599;28;20493;-59
2022/03/02 07:28:13;;;;;;;36.97;25.33;;;;;;;5.79;47.07;102217.47;5067855;28;20106;-59
2022/03/02 07:30:40;;;;;;;38.25;26.75;;;;;;;5.76;47.17;102222.75;5067722;28;20041;-59
2022/03/02 07:33:07;;;;;;;38.30;26.13;;;;;;;5.83;47.18;102232.22;5067976;28;20049;-59
2022/03/02 07:35:36;;;;;;;36.92;26.35;;;;;;;6.04;46.62;102218.94;5067639;28;20040;-59
2022/03/02 07:38:05;;;;;;;42.45;26.13;;;;;;;6.22;46.65;102235.16;5068012;28;20041;-59
2022/03/02 07:40:32;;;;;;;41.30;26.25;;;;;;;6.32;46.27;102228.09;5067964;28;20072;-58
2022/03/02 07:42:59;;;;;;;44.25;27.42;;;;;;;6.52;45.86;102227.78;5068332;28;20036;-58
2022/03/02 07:45:26;;;;;;;36.13;25.95;;;;;;;6.70;45.78;102222.28;5063500;28;20048;-58
2022/03/02 07:47:53;;;;;;;45.78;28.70;;;;;;;6.83;45.48;102232.50;5067844;28;20051;-59
2022/03/02 07:50:19;;;;;;;59.75;34.30;;;;;;;6.97;45.04;102232.25;5068730;28;20454;-59
2022/03/02 07:52:51;;;;;;;59.03;32.40;;;;;;;7.07;45.10;102231.19;5067020;28;20045;-58
2022/03/02 07:55:18;;;;;;;48.05;30.60;;;;;;;7.29;44.69;102226.47;5068369;28;20048;-59
2022/03/02 07:57:51;;;;;;;44.28;29.40;;;;;;;7.42;44.56;102232.31;5067343;28;20052;-58
2022/03/02 08:00:18;;;;;;;46.35;28.92;;;;;;;7.54;44.43;102231.19;5068343;28;20048;-58
2022/03/02 08:02:46;;;;;;;50.30;30.45;;;;;;;7.46;44.69;102226.13;5067961;28;20045;-58
2022/03/02 08:05:14;;;;;;;45.30;27.90;;;;;;;7.65;44.32;102224.00;5067908;28;20091;-59
2022/03/02 08:07:40;;;;;;;37.97;25.17;;;;;;;7.70;44.35;102218.69;5067335;28;20082;-59
2022/03/02 08:10:07;;;;;;;40.95;27.27;;;;;;;7.92;43.81;102221.72;5068391;28;20791;-59
2022/03/02 08:12:34;;;;;;;37.03;27.35;;;;;;;7.89;44.14;102213.94;5067909;28;20098;-59
2022/03/02 08:15:03;;;;;;;35.67;25.95;;;;;;;8.05;43.78;102210.97;5067508;28;20125;-59
2022/03/02 08:17:29;;;;;;;36.42;24.70;;;;;;;8.19;43.57;102206.31;5067676;28;20102;-58
2022/03/02 08:19:57;;;;;;;34.75;23.25;;;;;;;8.28;43.17;102208.72;5066477;28;20051;-58
2022/03/02 08:22:24;;;;;;;31.88;22.20;;;;;;;8.54;42.70;102204.63;5067985;28;20435;-59
2022/03/02 08:25:10;;;;;;;31.35;21.40;;;;;;;8.64;42.49;102195.66;5067609;28;20424;-58
2022/03/02 08:27:43;;;;;;;28.75;20.33;;;;;;;8.71;42.40;102196.38;5067746;28;20609;-59
2022/03/02 08:30:12;;;;;;;30.00;20.02;;;;;;;8.85;42.33;102195.16;5067891;28;20440;-59
2022/03/02 08:32:44;;;;;;;30.50;20.25;;;;;;;9.08;42.07;102191.94;5064758;28;20047;-59
2022/03/02 08:35:11;;;;;;;34.03;19.45;;;;;;;9.25;41.53;102197.56;5067003;28;20412;-59
2022/03/02 08:37:40;;;;;;;32.35;21.23;;;;;;;9.40;41.40;102190.19;5065774;28;20441;-59
2022/03/02 08:40:08;;;;;;;30.35;19.88;;;;;;;9.51;41.35;102188.13;5067016;28;20049;-58
2022/03/02 08:42:34;;;;;;;30.65;18.35;;;;;;;9.59;40.98;102186.13;5067356;28;20102;-58
2022/03/02 08:45:02;;;;;;;26.35;19.08;;;;;;;9.82;40.70;102181.97;5070020;28;20045;-58
2022/03/02 08:47:31;;;;;;;25.17;19.08;;;;;;;9.99;40.37;102178.81;5071416;28;20556;-60
2022/03/02 08:49:58;;;;;;;27.17;19.45;;;;;;;10.15;40.07;102178.34;5071088;28;20040;-59
2022/03/02 08:52:28;;;;;;;28.42;18.70;;;;;;;10.31;39.80;102182.22;5070638;28;20044;-59
2022/03/02 08:54:56;;;;;;;28.63;19.95;;;;;;;10.24;39.68;102178.06;5070803;28;20083;-59
2022/03/02 08:57:23;;;;;;;29.15;18.95;;;;;;;10.25;39.61;102183.25;5070694;28;20127;-59
2022/03/02 08:59:52;;;;;;;25.65;19.00;;;;;;;10.27;39.54;102184.06;5066857;28;20049;-59
2022/03/02 09:02:21;;;;;;;30.13;19.15;;;;;;;10.51;39.18;102188.59;5068648;28;20110;-59
2022/03/02 09:04:48;;;;;;;25.67;19.55;;;;;;;10.72;38.91;102177.38;5073840;28;20150;-59
2022/03/02 09:07:17;;;;;;;27.05;18.98;;;;;;;11.02;38.23;102174.59;5071752;28;20049;-59
2022/03/02 09:09:44;;;;;;;27.90;19.83;;;;;;;11.22;37.91;102160.75;5073802;28;20075;-59
2022/03/02 09:12:14;;;;;;;27.42;18.88;;;;;;;11.34;37.73;102154.16;5073290;28;20118;-59
2022/03/02 09:14:41;;;;;;;28.83;19.33;;;;;;;11.53;37.39;102154.34;5070244;28;20048;-60
2022/03/02 09:17:08;;;;;;;27.63;17.58;;;;;;;11.61;37.07;102151.41;5070658;28;20048;-59
2022/03/02 09:19:35;;;;;;;27.50;17.52;;;;;;;11.91;36.43;102138.84;5070198;28;20105;-59
2022/03/02 09:22:03;;;;;;;24.08;18.02;;;;;;;12.07;36.06;102143.50;5070584;28;20045;-59
2022/03/02 09:24:31;;;;;;;30.40;17.92;;;;;;;12.26;35.83;102140.97;5067547;28;20067;-59
2022/03/02 09:26:58;;;;;;;28.08;19.05;;;;;;;12.41;35.44;102142.13;5069209;28;20067;-59
2022/03/02 09:29:30;;;;;;;23.83;17.38;;;;;;;12.32;35.43;102145.16;5070518;28;20061;-59
2022/03/02 09:31:58;;;;;;;30.45;18.52;;;;;;;12.40;34.82;102143.91;5070085;28;20044;-60
2022/03/02 09:34:28;;;;;;;26.35;19.00;;;;;;;12.52;34.49;102145.16;5071251;28;20068;-59
2022/03/02 09:36:56;;;;;;;25.85;17.80;;;;;;;12.88;33.98;102146.28;5070546;28;20649;-59
2022/03/02 09:39:24;;;;;;;25.08;17.98;;;;;;;12.90;33.80;102144.44;5070849;28;20056;-59
2022/03/02 09:42:00;;;;;;;23.70;17.52;;;;;;;12.97;33.56;102142.38;5070643;28;20447;-59
2022/03/02 09:44:51;;;;;;;26.60;17.48;;;;;;;12.96;33.15;102146.78;5071030;28;20523;-60
2022/03/02 09:47:21;;;;;;;23.15;17.35;;;;;;;13.12;33.08;102139.06;5065871;28;20538;-60
2022/03/02 09:49:53;;;;;;;28.85;19.02;;;;;;;13.12;32.94;102136.44;5074372;28;20140;-60
2022/03/02 09:52:21;;;;;;;23.02;18.10;;;;;;;13.37;32.56;102136.19;5070813;28;20047;-59
2022/03/02 09:54:53;;;;;;;22.63;17.38;;;;;;;13.57;32.42;102128.28;5074990;28;20044;-59
2022/03/02 09:57:22;;;;;;;22.95;16.90;;;;;;;13.75;32.18;102132.72;5072696;28;20047;-59
2022/03/02 09:59:51;;;;;;;26.73;18.35;;;;;;;13.87;31.95;102123.34;5070120;28;20048;-59
2022/03/02 10:02:37;;;;;;;29.27;18.67;;;;;;;14.09;31.46;102117.84;5071095;28;20500;-59
2022/03/02 10:05:18;;;;;;;27.23;18.35;;;;;;;14.26;31.42;102111.75;5059694;28;20053;-60
2022/03/02 10:08:11;;;;;;;24.20;18.00;;;;;;;14.40;30.91;102108.41;5068563;28;20066;-60
2022/03/02 10:10:39;;;;;;;22.95;17.50;;;;;;;14.36;30.81;102106.84;5066790;28;20127;-60
2022/03/02 10:13:09;;;;;;;25.17;18.40;;;;;;;14.61;30.33;102100.31;5068323;28;20041;-60
2022/03/02 10:15:37;;;;;;;23.42;18.02;;;;;;;14.58;30.38;102100.47;5068976;28;20127;-60
2022/03/02 10:18:07;;;;;;;22.80;17.10;;;;;;;14.60;30.33;102095.94;5069501;28;20075;-60
2022/03/02 10:20:36;;;;;;;20.45;16.42;;;;;;;14.71;29.88;102090.16;5069166;28;20036;-60
2022/03/02 10:23:27;;;;;;;24.90;17.13;;;;;;;14.77;29.47;102089.81;5069086;28;20118;-60
2022/03/02 10:26:18;;;;;;;22.85;16.63;;;;;;;14.72;29.57;102081.28;5065974;28;20614;-60
2022/03/02 10:28:54;;;;;;;24.27;17.00;;;;;;;14.94;28.87;102075.69;5069674;28;20110;-60
2022/03/02 10:31:40;;;;;;;;;;;;;;;14.98;28.72;102072.81;5066038;28;20545;-60
2022/03/02 10:34:25;;;;;;;24.92;16.55;;;;;;;15.17;28.65;102069.16;5058889;28;19931;-60
2022/03/02 10:37:10;;;;;;;22.70;16.60;;;;;;;15.19;28.61;102059.34;5069725;28;20075;-61
2022/03/02 10:40:05;;;;;;;23.08;16.38;;;;;;;15.44;28.32;102058.84;5068717;28;20086;-59
2022/03/02 10:42:36;;;;;;;22.85;16.05;;;;;;;15.59;28.17;102049.19;5069710;28;20090;-60
2022/03/02 10:45:22;;;;;;;25.42;15.75;;;;;;;15.76;27.69;102047.38;5068527;28;20053;-60
2022/03/02 10:48:14;;;;;;;21.25;16.13;;;;;;;15.82;27.52;102047.03;5069904;28;20499;-60
2022/03/02 10:50:42;;;;;;;22.27;16.60;;;;;;;15.81;27.65;102038.25;5064909;28;20047;-60
2022/03/02 10:53:19;;;;;;;21.33;16.48;;;;;;;15.97;27.52;102032.91;5069715;28;20052;-60
2022/03/02 10:55:48;;;;;;;24.58;16.02;;;;;;;16.02;27.63;102022.03;5068777;28;20464;-59
2022/03/02 10:58:18;;;;;;;23.27;17.90;;;;;;;16.03;27.61;102021.09;5069786;28;20494;-59
2022/03/02 11:00:46;;;;;;;23.30;16.67;;;;;;;16.21;27.26;102020.94;5068513;28;20047;-60
2022/03/02 11:03:14;;;;;;;23.13;16.40;;;;;;;16.29;27.19;102011.59;5069059;28;20132;-60
2022/03/02 11:05:42;;;;;;;28.13;17.63;;;;;;;16.51;26.74;102009.44;5065197;28;20048;-60
2022/03/02 11:08:08;;;;;;;20.15;15.95;;;;;;;16.62;26.57;102002.53;5068671;28;20408;-60
2022/03/02 11:10:40;;;;;;;21.27;15.73;;;;;;;16.62;26.58;102001.66;5069049;28;20045;-60
2022/03/02 11:13:12;;;;;;;22.20;16.70;;;;;;;16.75;26.30;101999.13;5069223;28;20040;-60
2022/03/02 11:15:49;;;;;;;29.15;18.77;;;;;;;16.84;26.27;101985.28;5068006;28;20127;-60
2022/03/02 11:18:17;;;;;;;23.60;17.08;;;;;;;17.00;25.94;101984.31;5067728;28;20052;-60
2022/03/02 11:21:01;;;;;;;22.20;17.25;;;;;;;17.12;26.19;101987.03;5069082;28;20040;-60
2022/03/02 11:23:31;;;;;;;47.47;30.75;;;;;;;17.12;26.15;101980.88;5060420;28;20044;-60
2022/03/02 11:26:06;;;;;;;29.45;19.30;;;;;;;17.20;26.18;101973.28;5068222;28;20044;-60
2022/03/02 11:28:32;;;;;;;37.58;24.55;;;;;;;17.18;26.21;101969.88;5062988;28;20095;-60